createdAt,value
2023-03-18T00:00:49.726Z,0.81
2023-03-18T00:03:17.719Z,0.79
2023-03-18T00:05:45.715Z,0.74
2023-03-18T00:08:13.178Z,0.75
2023-03-18T00:10:40.884Z,0.75
2023-03-18T00:13:08.403Z,0.72
2023-03-18T00:15:36.077Z,0.72
2023-03-18T00:18:03.757Z,0.74
2023-03-18T00:20:39.129Z,0.76
2023-03-18T00:23:08.680Z,0.76
2023-03-18T00:25:37.894Z,0.75
2023-03-18T00:28:07.191Z,0.77
2023-03-18T00:30:39.066Z,0.77
2023-03-18T00:33:07.355Z,0.75
2023-03-18T00:35:36.503Z,0.70
2023-03-18T00:38:07.653Z,0.72
2023-03-18T00:40:53.559Z,0.73
2023-03-18T00:43:23.235Z,0.75
2023-03-18T00:45:51.255Z,0.74
2023-03-18T00:48:18.769Z,0.70
2023-03-18T00:50:46.928Z,0.73
2023-03-18T00:53:15.303Z,0.71
2023-03-18T00:55:44.184Z,0.70
2023-03-18T00:58:12.857Z,0.68
2023-03-18T01:00:41.468Z,0.68
2023-03-18T01:03:09.098Z,0.66
2023-03-18T01:05:36.727Z,0.64
2023-03-18T01:08:05.123Z,0.64
2023-03-18T01:10:33.303Z,0.63
2023-03-18T01:13:01.644Z,0.64
2023-03-18T01:15:29.768Z,0.62
2023-03-18T01:17:58.507Z,0.62
2023-03-18T01:20:27.081Z,0.59
2023-03-18T01:22:57.078Z,0.53
2023-03-18T01:25:25.038Z,0.53
2023-03-18T01:27:54.863Z,0.52
2023-03-18T01:30:23.936Z,0.52
2023-03-18T01:32:54.096Z,0.50
2023-03-18T01:35:22.241Z,0.44
2023-03-18T01:37:51.707Z,0.43
2023-03-18T01:40:21.249Z,0.41
2023-03-18T01:42:57.704Z,0.41
2023-03-18T01:45:30.454Z,0.35
2023-03-18T01:48:01.258Z,0.27
2023-03-18T01:50:33.572Z,0.25
2023-03-18T01:53:08.386Z,0.21
2023-03-18T01:55:38.000Z,0.15
2023-03-18T01:58:24.696Z,0.26
2023-03-18T02:01:19.303Z,0.28
2023-03-18T02:03:50.514Z,0.15
2023-03-18T02:06:19.386Z,0.14
2023-03-18T02:08:58.398Z,0.15
2023-03-18T02:11:27.185Z,0.08
2023-03-18T02:14:00.746Z,0.07
2023-03-18T02:16:35.448Z,0.08
2023-03-18T02:19:12.379Z,0.05
2023-03-18T02:21:45.519Z,0.01
2023-03-18T02:24:25.348Z,0.04
2023-03-18T02:27:26.753Z,0.10
2023-03-18T02:29:58.853Z,-0.04
2023-03-18T02:32:31.400Z,-0.05
2023-03-18T02:35:03.689Z,-0.02
2023-03-18T02:37:32.555Z,-0.04
2023-03-18T02:40:15.465Z,-0.02
2023-03-18T02:42:44.428Z,-0.10
2023-03-18T02:45:38.492Z,-0.09
2023-03-18T02:48:15.343Z,-0.12
2023-03-18T02:50:43.228Z,-0.09
2023-03-18T02:53:13.227Z,-0.08
2023-03-18T02:55:42.519Z,-0.11
2023-03-18T02:58:10.466Z,-0.05
2023-03-18T03:00:38.649Z,-0.05
2023-03-18T03:03:06.571Z,-0.14
2023-03-18T03:05:35.074Z,-0.07
2023-03-18T03:08:03.100Z,-0.07
2023-03-18T03:10:34.022Z,-0.12
2023-03-18T03:13:02.487Z,-0.07
2023-03-18T03:15:30.948Z,-0.09
2023-03-18T03:18:00.354Z,-0.09
2023-03-18T03:20:28.837Z,-0.15
2023-03-18T03:22:58.235Z,-0.15
2023-03-18T03:25:27.602Z,-0.17
2023-03-18T03:27:56.484Z,-0.14
2023-03-18T03:30:26.322Z,-0.26
2023-03-18T03:32:53.915Z,-0.28
2023-03-18T03:35:22.432Z,-0.22
2023-03-18T03:37:50.638Z,-0.24
2023-03-18T03:40:19.160Z,-0.32
2023-03-18T03:42:49.317Z,-0.29
2023-03-18T03:45:19.578Z,-0.28
2023-03-18T03:47:47.889Z,-0.29
2023-03-18T03:50:18.408Z,-0.28
2023-03-18T03:52:47.134Z,-0.23
2023-03-18T03:55:17.543Z,-0.28
2023-03-18T03:57:46.316Z,-0.24
2023-03-18T04:00:18.822Z,-0.19
2023-03-18T04:02:50.945Z,-0.20
2023-03-18T04:05:22.706Z,-0.19
2023-03-18T04:07:51.610Z,-0.15
2023-03-18T04:10:23.084Z,-0.12
2023-03-18T04:12:51.038Z,-0.15
2023-03-18T04:15:21.389Z,-0.09
2023-03-18T04:17:51.311Z,-0.07
2023-03-18T04:20:20.122Z,-0.01
2023-03-18T04:22:48.235Z,0.03
2023-03-18T04:25:18.937Z,0.12
2023-03-18T04:27:47.313Z,0.20
2023-03-18T04:30:17.982Z,0.24
2023-03-18T04:33:01.537Z,0.40
2023-03-18T04:35:30.058Z,0.53
2023-03-18T04:37:57.829Z,0.64
2023-03-18T04:40:25.562Z,0.91
2023-03-18T04:42:53.297Z,1.16
2023-03-18T04:45:27.222Z,1.38
2023-03-18T04:47:58.526Z,1.55
2023-03-18T04:50:29.431Z,1.82
2023-03-18T04:52:57.291Z,2.00
2023-03-18T04:55:28.458Z,2.25
2023-03-18T04:57:56.974Z,2.45
2023-03-18T05:00:26.954Z,2.71
2023-03-18T05:03:04.813Z,2.94
2023-03-18T05:05:32.896Z,3.10
2023-03-18T05:08:00.715Z,3.30
2023-03-18T05:10:29.230Z,3.40
2023-03-18T05:12:56.765Z,3.58
2023-03-18T05:15:31.057Z,3.73
2023-03-18T05:18:00.114Z,3.81
2023-03-18T05:20:28.866Z,3.89
2023-03-18T05:22:56.687Z,3.96
2023-03-18T05:25:32.875Z,4.12
2023-03-18T05:28:01.366Z,4.26
2023-03-18T05:30:44.274Z,4.29
2023-03-18T05:33:15.505Z,4.31
2023-03-18T05:35:49.777Z,4.28
2023-03-18T05:38:20.716Z,4.34
2023-03-18T05:40:48.651Z,4.39
2023-03-18T05:43:21.887Z,4.47
2023-03-18T05:45:53.403Z,4.54
2023-03-18T05:48:27.187Z,4.52
2023-03-18T05:50:59.683Z,4.56
2023-03-18T05:53:32.128Z,4.55
2023-03-18T05:56:12.518Z,4.70
2023-03-18T05:58:40.375Z,4.95
2023-03-18T06:01:31.653Z,5.06
2023-03-18T06:04:01.180Z,5.05
2023-03-18T06:06:29.155Z,5.18
2023-03-18T06:08:56.824Z,5.38
2023-03-18T06:11:24.985Z,5.72
2023-03-18T06:13:54.575Z,6.01
2023-03-18T06:16:23.509Z,6.29
2023-03-18T06:18:53.847Z,6.58
2023-03-18T06:21:21.444Z,6.90
2023-03-18T06:23:49.864Z,7.14
2023-03-18T06:26:18.000Z,7.34
2023-03-18T06:28:48.318Z,7.67
2023-03-18T06:31:17.994Z,7.83
2023-03-18T06:33:46.386Z,8.08
2023-03-18T06:36:16.936Z,8.37
2023-03-18T06:38:48.981Z,8.69
2023-03-18T06:41:18.098Z,9.00
2023-03-18T06:44:06.656Z,9.46
2023-03-18T06:46:34.526Z,9.87
2023-03-18T06:49:03.904Z,10.23
2023-03-18T06:51:35.184Z,10.51
2023-03-18T06:54:03.241Z,11.04
2023-03-18T06:56:38.867Z,11.36
2023-03-18T06:59:17.709Z,11.59
2023-03-18T07:01:46.671Z,11.89
2023-03-18T07:04:17.521Z,12.17
2023-03-18T07:06:45.773Z,12.55
2023-03-18T07:09:15.520Z,12.79
2023-03-18T07:11:47.112Z,12.99
2023-03-18T07:14:20.528Z,13.24
2023-03-18T07:16:48.285Z,13.50
2023-03-18T07:19:17.947Z,13.94
2023-03-18T07:21:46.594Z,14.38
2023-03-18T07:24:14.416Z,14.63
2023-03-18T07:26:42.028Z,14.93
2023-03-18T07:29:10.770Z,15.25
2023-03-18T07:31:38.780Z,15.63
2023-03-18T07:34:06.636Z,15.91
2023-03-18T07:36:34.258Z,16.05
2023-03-18T07:39:02.166Z,16.03
2023-03-18T07:41:29.957Z,16.04
2023-03-18T07:43:57.534Z,16.26
2023-03-18T07:46:25.969Z,16.64
2023-03-18T07:48:53.817Z,16.88
2023-03-18T07:51:21.807Z,16.89
2023-03-18T07:53:51.795Z,16.94
2023-03-18T07:56:19.594Z,17.39
2023-03-18T07:58:48.044Z,17.69
2023-03-18T08:01:21.571Z,17.95
2023-03-18T08:03:49.582Z,18.67
2023-03-18T08:06:19.088Z,19.19
2023-03-18T08:08:47.231Z,19.41
2023-03-18T08:11:14.918Z,19.73
2023-03-18T08:13:42.982Z,19.97
2023-03-18T08:16:10.615Z,20.09
2023-03-18T08:18:38.222Z,20.06
2023-03-18T08:21:06.140Z,20.04
2023-03-18T08:23:33.714Z,20.22
2023-03-18T08:26:01.754Z,20.08
2023-03-18T08:28:29.753Z,20.19
2023-03-18T08:30:59.331Z,20.63
2023-03-18T08:33:28.204Z,20.82
2023-03-18T08:35:56.412Z,20.80
2023-03-18T08:38:25.238Z,21.30
2023-03-18T08:40:52.740Z,21.68
2023-03-18T08:43:22.977Z,21.78
2023-03-18T08:45:54.313Z,21.98
2023-03-18T08:48:23.108Z,21.83
2023-03-18T08:50:50.780Z,22.16
2023-03-18T08:53:19.544Z,22.23
2023-03-18T08:55:47.137Z,22.62
2023-03-18T08:58:14.917Z,22.82
2023-03-18T09:00:43.099Z,22.66
2023-03-18T09:03:11.252Z,22.77
2023-03-18T09:05:38.912Z,23.21
2023-03-18T09:08:06.760Z,23.44
2023-03-18T09:10:34.395Z,23.54
2023-03-18T09:13:02.116Z,23.74
2023-03-18T09:15:30.288Z,24.18
2023-03-18T09:18:11.089Z,24.38
2023-03-18T09:20:41.361Z,24.50
2023-03-18T09:23:10.072Z,24.70
2023-03-18T09:25:38.251Z,24.37
2023-03-18T09:28:06.025Z,24.01
2023-03-18T09:30:34.190Z,23.97
2023-03-18T09:33:02.192Z,24.04
2023-03-18T09:35:29.884Z,24.12
2023-03-18T09:37:57.546Z,24.35
2023-03-18T09:40:36.247Z,25.02
2023-03-18T09:43:32.549Z,25.95
2023-03-18T09:46:24.909Z,26.38
2023-03-18T09:49:15.147Z,25.67
2023-03-18T09:52:13.995Z,26.66
2023-03-18T09:54:45.141Z,26.24
2023-03-18T09:57:42.428Z,27.27
2023-03-18T10:00:26.128Z,27.10
2023-03-18T10:03:02.613Z,27.00
2023-03-18T10:05:41.478Z,27.33
2023-03-18T10:08:18.872Z,27.37
2023-03-18T10:10:47.750Z,27.34
2023-03-18T10:13:29.150Z,28.03
2023-03-18T10:16:04.591Z,27.47
2023-03-18T10:18:35.702Z,27.63
2023-03-18T10:21:21.691Z,28.44
2023-03-18T10:24:00.901Z,27.85
2023-03-18T10:26:35.035Z,27.93
2023-03-18T10:29:33.398Z,28.66
2023-03-18T10:32:22.483Z,28.69
2023-03-18T10:35:18.383Z,28.90
2023-03-18T10:37:57.994Z,28.69
2023-03-18T10:40:27.284Z,28.47
2023-03-18T10:42:56.555Z,29.03
2023-03-18T10:45:28.689Z,28.77
2023-03-18T10:48:03.289Z,28.75
2023-03-18T10:50:43.417Z,29.34
2023-03-18T10:53:19.923Z,29.54
2023-03-18T10:56:05.225Z,30.25
2023-03-18T10:58:33.721Z,30.06
2023-03-18T11:01:01.216Z,29.56
2023-03-18T11:03:47.653Z,29.98
2023-03-18T11:06:20.211Z,29.77
2023-03-18T11:08:49.677Z,29.78
2023-03-18T11:11:35.350Z,30.61
2023-03-18T11:14:05.249Z,30.44
2023-03-18T11:16:49.642Z,30.84
2023-03-18T11:19:32.340Z,30.30
2023-03-18T11:22:17.869Z,30.41
2023-03-18T11:24:45.586Z,30.64
2023-03-18T11:27:18.888Z,30.57
2023-03-18T11:29:59.156Z,31.12
2023-03-18T11:32:28.801Z,30.73
2023-03-18T11:34:58.621Z,30.15
2023-03-18T11:37:41.401Z,30.03
2023-03-18T11:40:15.075Z,30.12
2023-03-18T11:42:43.345Z,30.31
2023-03-18T11:45:36.683Z,31.48
2023-03-18T11:48:06.968Z,31.22
2023-03-18T11:50:54.446Z,31.58
2023-03-18T11:53:38.525Z,31.79
2023-03-18T11:56:45.381Z,32.15
2023-03-18T11:59:37.614Z,32.05
2023-03-18T12:02:42.845Z,31.87
2023-03-18T12:05:13.976Z,31.29
2023-03-18T12:07:51.533Z,31.29
2023-03-18T12:10:24.910Z,30.90
2023-03-18T12:13:11.906Z,30.94
2023-03-18T12:15:45.058Z,31.43
2023-03-18T12:18:21.912Z,31.26
2023-03-18T12:21:04.873Z,31.41
2023-03-18T12:23:44.667Z,31.70
2023-03-18T12:26:21.431Z,31.42
2023-03-18T12:28:54.995Z,31.09
2023-03-18T12:32:11.193Z,31.84
2023-03-18T12:34:47.726Z,31.60
2023-03-18T12:37:32.404Z,31.89
2023-03-18T12:40:34.548Z,31.94
2023-03-18T12:43:37.532Z,31.65
2023-03-18T12:46:20.717Z,31.57
2023-03-18T12:48:54.457Z,31.57
2023-03-18T12:51:28.577Z,31.58
2023-03-18T12:54:02.383Z,31.28
2023-03-18T12:56:31.301Z,28.50
2023-03-18T12:59:19.041Z,24.86
2023-03-18T13:02:05.704Z,20.87
2023-03-18T13:04:38.379Z,17.68
2023-03-18T13:07:43.213Z,15.93
2023-03-18T13:10:24.475Z,14.39
2023-03-18T13:12:56.880Z,12.99
2023-03-18T13:15:32.235Z,12.21
2023-03-18T13:18:21.491Z,11.62
2023-03-18T13:20:51.912Z,10.84
2023-03-18T13:23:38.503Z,10.51
2023-03-18T13:26:24.361Z,10.12
2023-03-18T13:29:01.025Z,9.68
2023-03-18T13:31:57.981Z,9.28
2023-03-18T13:35:01.822Z,8.97
2023-03-18T13:37:58.734Z,8.54
2023-03-18T13:40:52.959Z,8.30
2023-03-18T13:43:23.035Z,8.03
2023-03-18T13:45:55.368Z,7.92
2023-03-18T13:48:33.729Z,7.77
2023-03-18T13:51:20.538Z,7.60
2023-03-18T13:53:50.688Z,7.20
2023-03-18T13:56:48.016Z,7.18
2023-03-18T13:59:33.668Z,7.09
2023-03-18T14:02:55.191Z,7.01
2023-03-18T14:05:40.556Z,6.86
2023-03-18T14:08:39.219Z,6.82
2023-03-18T14:11:46.325Z,6.91
2023-03-18T14:14:57.020Z,6.60
2023-03-18T14:17:58.663Z,6.49
2023-03-18T14:20:36.248Z,6.23
2023-03-18T14:23:25.387Z,6.21
2023-03-18T14:26:08.696Z,6.16
2023-03-18T14:28:44.591Z,6.05
2023-03-18T14:31:32.720Z,6.08
2023-03-18T14:34:10.289Z,5.97
2023-03-18T14:36:46.861Z,6.10
2023-03-18T14:39:24.687Z,5.88
2023-03-18T14:41:57.110Z,5.72
2023-03-18T14:44:47.803Z,5.68
2023-03-18T14:47:39.515Z,5.71
2023-03-18T14:50:15.910Z,5.64
2023-03-18T14:52:51.163Z,5.58
2023-03-18T14:55:22.773Z,5.55
2023-03-18T14:57:51.890Z,5.54
2023-03-18T15:00:21.981Z,5.54
2023-03-18T15:03:00.647Z,5.54
2023-03-18T15:05:34.144Z,5.52
2023-03-18T15:08:03.112Z,5.45
2023-03-18T15:10:32.921Z,5.43
2023-03-18T15:13:13.144Z,5.37
2023-03-18T15:15:42.156Z,5.35
2023-03-18T15:18:24.732Z,5.29
2023-03-18T15:21:04.402Z,5.23
2023-03-18T15:23:36.013Z,5.18
2023-03-18T15:26:08.745Z,5.14
2023-03-18T15:28:37.448Z,5.02
2023-03-18T15:31:06.606Z,5.01
2023-03-18T15:33:37.371Z,4.96
2023-03-18T15:36:12.895Z,4.91
2023-03-18T15:38:48.398Z,4.90
2023-03-18T15:41:18.509Z,4.79
2023-03-18T15:43:49.399Z,4.82
2023-03-18T15:46:24.959Z,4.80
2023-03-18T15:48:58.408Z,4.78
2023-03-18T15:51:30.950Z,4.73
2023-03-18T15:54:04.563Z,4.69
2023-03-18T15:56:36.079Z,4.67
2023-03-18T15:59:09.302Z,4.64
2023-03-18T16:01:37.348Z,4.59
2023-03-18T16:04:08.471Z,4.57
2023-03-18T16:06:36.508Z,4.54
2023-03-18T16:09:15.682Z,4.57
2023-03-18T16:11:47.843Z,4.51
2023-03-18T16:14:21.699Z,4.51
2023-03-18T16:16:50.139Z,4.50
2023-03-18T16:19:28.164Z,4.50
2023-03-18T16:21:58.599Z,4.42
2023-03-18T16:24:26.428Z,4.44
2023-03-18T16:26:55.814Z,4.44
2023-03-18T16:29:29.399Z,4.44
2023-03-18T16:31:57.340Z,4.41
2023-03-18T16:34:25.257Z,4.31
2023-03-18T16:36:53.665Z,4.37
2023-03-18T16:39:27.502Z,4.35
2023-03-18T16:41:55.109Z,4.32
2023-03-18T16:44:23.735Z,4.33
2023-03-18T16:46:54.638Z,4.31
2023-03-18T16:49:27.198Z,4.29
2023-03-18T16:51:55.204Z,4.26
2023-03-18T16:54:25.825Z,4.29
2023-03-18T16:56:59.441Z,4.28
2023-03-18T16:59:37.009Z,4.25
2023-03-18T17:02:04.974Z,4.23
2023-03-18T17:04:35.990Z,4.17
2023-03-18T17:07:04.953Z,4.16
2023-03-18T17:09:32.850Z,4.14
2023-03-18T17:12:04.626Z,4.11
2023-03-18T17:14:34.794Z,4.11
2023-03-18T17:17:11.787Z,4.06
2023-03-18T17:19:40.263Z,4.03
2023-03-18T17:22:21.907Z,4.06
2023-03-18T17:24:50.319Z,3.99
2023-03-18T17:27:20.731Z,3.95
2023-03-18T17:29:48.640Z,3.89
2023-03-18T17:32:16.845Z,3.88
2023-03-18T17:34:50.561Z,3.87
2023-03-18T17:37:18.942Z,3.85
2023-03-18T17:39:47.159Z,3.81
2023-03-18T17:42:32.006Z,3.80
2023-03-18T17:45:21.650Z,3.84
2023-03-18T17:47:50.342Z,3.73
2023-03-18T17:50:18.825Z,3.67
2023-03-18T17:52:49.033Z,3.61
2023-03-18T17:55:24.982Z,3.60
2023-03-18T17:57:52.567Z,3.55
2023-03-18T18:00:23.093Z,3.58
2023-03-18T18:02:54.887Z,3.50
2023-03-18T18:05:23.500Z,3.43
2023-03-18T18:07:51.696Z,3.39
2023-03-18T18:10:20.806Z,3.33
2023-03-18T18:12:49.835Z,3.28
2023-03-18T18:15:25.626Z,3.25
2023-03-18T18:17:54.447Z,3.22
2023-03-18T18:20:22.443Z,3.19
2023-03-18T18:22:54.610Z,3.16
2023-03-18T18:25:25.357Z,3.05
2023-03-18T18:27:54.867Z,3.06
2023-03-18T18:30:23.919Z,3.00
2023-03-18T18:32:52.673Z,3.02
2023-03-18T18:35:25.314Z,2.97
2023-03-18T18:37:53.191Z,2.92
2023-03-18T18:40:21.020Z,2.87
2023-03-18T18:42:48.687Z,2.82
2023-03-18T18:45:19.278Z,2.77
2023-03-18T18:47:47.397Z,2.77
2023-03-18T18:50:21.717Z,2.75
2023-03-18T18:52:49.367Z,2.67
2023-03-18T18:55:17.097Z,2.61
2023-03-18T18:57:44.853Z,2.60
2023-03-18T19:00:21.997Z,2.59
2023-03-18T19:02:58.372Z,2.51
2023-03-18T19:05:26.035Z,2.44
2023-03-18T19:07:53.798Z,2.44
2023-03-18T19:10:21.535Z,2.45
2023-03-18T19:12:49.006Z,2.44
2023-03-18T19:15:17.086Z,2.41
2023-03-18T19:17:45.392Z,2.42
2023-03-18T19:20:30.147Z,2.44
2023-03-18T19:22:57.913Z,2.40
2023-03-18T19:25:26.018Z,2.37
2023-03-18T19:27:54.957Z,2.37
2023-03-18T19:30:24.455Z,2.35
2023-03-18T19:32:52.409Z,2.32
2023-03-18T19:35:19.943Z,2.32
2023-03-18T19:37:48.202Z,2.31
2023-03-18T19:40:29.787Z,2.28
2023-03-18T19:42:57.583Z,2.23
2023-03-18T19:45:25.530Z,2.25
2023-03-18T19:47:53.524Z,2.20
2023-03-18T19:50:22.068Z,2.24
2023-03-18T19:52:49.865Z,2.21
2023-03-18T19:55:17.634Z,2.24
2023-03-18T19:57:48.571Z,2.22
2023-03-18T20:00:24.787Z,2.29
2023-03-18T20:02:53.745Z,2.19
2023-03-18T20:05:23.761Z,2.22
2023-03-18T20:07:52.291Z,2.20
2023-03-18T20:10:20.791Z,2.12
2023-03-18T20:12:52.796Z,2.06
2023-03-18T20:15:23.504Z,2.05
2023-03-18T20:17:52.381Z,2.06
2023-03-18T20:20:23.500Z,1.95
2023-03-18T20:23:03.596Z,2.03
2023-03-18T20:25:37.403Z,1.96
2023-03-18T20:28:06.154Z,1.96
2023-03-18T20:30:36.795Z,1.97
2023-03-18T20:33:05.185Z,1.88
2023-03-18T20:35:36.738Z,1.84
2023-03-18T20:38:12.818Z,1.86
2023-03-18T20:40:42.590Z,1.90
2023-03-18T20:43:17.970Z,1.86
2023-03-18T20:45:45.715Z,1.77
2023-03-18T20:48:13.441Z,1.75
2023-03-18T20:50:41.813Z,1.75
2023-03-18T20:53:16.338Z,1.71
2023-03-18T20:55:44.200Z,1.71
2023-03-18T20:58:16.172Z,1.65
2023-03-18T21:00:45.504Z,1.63
2023-03-18T21:03:24.675Z,1.64
2023-03-18T21:05:56.002Z,1.52
2023-03-18T21:08:24.832Z,1.48
2023-03-18T21:10:53.509Z,1.49
2023-03-18T21:13:39.287Z,1.49
2023-03-18T21:16:13.842Z,1.41
2023-03-18T21:18:46.141Z,1.32
2023-03-18T21:21:24.034Z,1.34
2023-03-18T21:23:53.997Z,1.28
2023-03-18T21:26:23.463Z,1.16
2023-03-18T21:28:52.620Z,1.08
2023-03-18T21:31:25.158Z,1.12
2023-03-18T21:33:53.584Z,1.07
2023-03-18T21:36:21.866Z,1.07
2023-03-18T21:38:49.519Z,1.01
2023-03-18T21:41:22.426Z,1.01
2023-03-18T21:43:50.627Z,0.95
2023-03-18T21:46:20.712Z,0.87
2023-03-18T21:48:48.608Z,0.87
2023-03-18T21:51:38.078Z,0.87
2023-03-18T21:54:06.374Z,0.78
2023-03-18T21:56:33.896Z,0.78
2023-03-18T21:59:01.454Z,0.80
2023-03-18T22:01:32.320Z,0.80
2023-03-18T22:04:00.031Z,0.75
2023-03-18T22:06:27.544Z,0.78
2023-03-18T22:08:57.500Z,0.71
2023-03-18T22:11:27.604Z,0.67
2023-03-18T22:13:55.585Z,0.72
2023-03-18T22:16:23.216Z,0.66
2023-03-18T22:18:51.365Z,0.71
2023-03-18T22:21:27.677Z,0.70
2023-03-18T22:23:58.146Z,0.69
2023-03-18T22:26:25.970Z,0.61
2023-03-18T22:28:53.696Z,0.61
2023-03-18T22:31:25.027Z,0.52
2023-03-18T22:33:53.522Z,0.52
2023-03-18T22:36:25.653Z,0.53
2023-03-18T22:38:53.211Z,0.47
2023-03-18T22:41:24.128Z,0.47
2023-03-18T22:43:51.657Z,0.46
2023-03-18T22:46:19.173Z,0.39
2023-03-18T22:48:46.862Z,0.27
2023-03-18T22:51:33.202Z,0.21
2023-03-18T22:54:00.847Z,0.17
2023-03-18T22:56:28.507Z,0.11
2023-03-18T22:58:56.116Z,0.10
2023-03-18T23:01:29.682Z,0.06
2023-03-18T23:03:57.300Z,-0.04
2023-03-18T23:06:26.043Z,-0.03
2023-03-18T23:08:53.589Z,-0.14
2023-03-18T23:11:21.423Z,-0.08
2023-03-18T23:13:50.184Z,-0.08
2023-03-18T23:16:20.985Z,-0.10
2023-03-18T23:18:49.240Z,-0.19
2023-03-18T23:21:22.151Z,-0.19
2023-03-18T23:23:50.440Z,-0.24
2023-03-18T23:26:18.151Z,-0.32
2023-03-18T23:28:46.101Z,-0.28
2023-03-18T23:31:15.662Z,-0.28
2023-03-18T23:33:43.475Z,-0.40
2023-03-18T23:36:11.978Z,-0.30
2023-03-18T23:38:39.734Z,-0.35
2023-03-18T23:41:08.204Z,-0.38
2023-03-18T23:43:38.308Z,-0.36
2023-03-18T23:46:06.384Z,-0.37
2023-03-18T23:48:33.894Z,-0.44
2023-03-18T23:51:01.360Z,-0.41
2023-03-18T23:53:28.900Z,-0.43
2023-03-18T23:55:56.786Z,-0.44
2023-03-18T23:58:24.316Z,-0.43
